Time;durP1;ratioP1;P1;durP2;ratioP2;P2;SDS_P1;SDS_P2;PMS_P1;PMS_P2;Temp;Humidity;BMP_temperature;BMP_pressure;BME280_temperature;BME280_humidity;BME280_pressure;Samples;Min_cycle;Max_cycle;Signal;HPM_P1;HPM_P2
2023/09/08 00:00:33;;;;;;;7.13;3.63;;;17.20;99.90;;;;;;5110802;28;20488;-87
2023/09/08 00:02:59;;;;;;;8.05;4.32;;;17.20;99.90;;;;;;5110018;28;20035;-86
2023/09/08 00:05:25;;;;;;;9.32;5.15;;;17.20;99.90;;;;;;5110823;28;20081;-87
2023/09/08 00:07:50;;;;;;;6.82;4.03;;;17.30;99.90;;;;;;5108996;28;20076;-85
2023/09/08 00:10:16;;;;;;;11.50;4.32;;;17.30;99.90;;;;;;5109129;28;20122;-86
2023/09/08 00:12:42;;;;;;;7.18;4.25;;;17.30;99.90;;;;;;5109004;28;20030;-86
2023/09/08 00:15:08;;;;;;;6.22;3.78;;;17.30;99.90;;;;;;5110258;28;20056;-87
2023/09/08 00:17:33;;;;;;;8.73;3.88;;;17.30;99.90;;;;;;5109435;28;20034;-87
2023/09/08 00:19:59;;;;;;;8.20;4.00;;;17.40;99.90;;;;;;5109826;28;20024;-87
2023/09/08 00:22:25;;;;;;;7.85;3.90;;;17.30;99.90;;;;;;5110528;28;20026;-88
2023/09/08 00:24:50;;;;;;;6.63;3.88;;;17.30;99.90;;;;;;5110224;28;20027;-86
2023/09/08 00:27:16;;;;;;;6.05;4.03;;;17.20;99.90;;;;;;5108890;28;20028;-86
2023/09/08 00:29:42;;;;;;;10.00;4.18;;;17.20;99.90;;;;;;5110992;28;20042;-86
2023/09/08 00:32:07;;;;;;;7.30;4.18;;;17.10;99.90;;;;;;5111089;28;20724;-86
2023/09/08 00:34:33;;;;;;;7.53;4.05;;;17.10;99.90;;;;;;5109223;28;20028;-86
2023/09/08 00:37:00;;;;;;;6.07;3.55;;;17.10;99.90;;;;;;5110571;28;20027;-88
2023/09/08 00:39:26;;;;;;;7.78;4.10;;;17.00;99.90;;;;;;5109624;28;20023;-86
2023/09/08 00:41:51;;;;;;;7.25;3.53;;;16.90;99.90;;;;;;5109242;28;20538;-87
2023/09/08 00:44:17;;;;;;;6.68;3.55;;;16.90;99.90;;;;;;5108685;28;20032;-86
2023/09/08 00:46:42;;;;;;;6.05;3.78;;;16.80;99.90;;;;;;5110326;28;20035;-86
2023/09/08 00:49:08;;;;;;;9.23;4.05;;;16.80;99.90;;;;;;5110078;28;20512;-86
2023/09/08 00:51:34;;;;;;;8.73;4.45;;;16.80;99.90;;;;;;5109085;28;20015;-85
2023/09/08 00:54:00;;;;;;;9.30;3.67;;;16.80;99.90;;;;;;5109517;28;20035;-88
2023/09/08 00:56:26;;;;;;;8.38;4.55;;;16.80;99.90;;;;;;5110843;28;20023;-86
2023/09/08 00:58:52;;;;;;;7.28;4.03;;;16.70;99.90;;;;;;5109145;28;20024;-86
2023/09/08 01:01:18;;;;;;;11.48;4.03;;;16.70;99.90;;;;;;5109325;28;20494;-88
2023/09/08 01:03:43;;;;;;;7.50;3.58;;;16.70;99.90;;;;;;5109305;28;20020;-85
2023/09/08 01:06:10;;;;;;;11.57;4.47;;;16.60;99.90;;;;;;5110149;28;20092;-86
2023/09/08 01:08:36;;;;;;;6.60;3.90;;;16.60;99.90;;;;;;5110368;28;20036;-88
2023/09/08 01:11:02;;;;;;;13.52;4.25;;;16.50;99.90;;;;;;5109144;28;20106;-86
2023/09/08 01:13:28;;;;;;;6.47;3.95;;;16.50;99.90;;;;;;5110199;28;20035;-86
2023/09/08 01:15:54;;;;;;;8.55;4.28;;;16.50;99.90;;;;;;5109042;28;20048;-87
2023/09/08 01:18:19;;;;;;;7.72;4.10;;;16.50;99.90;;;;;;5110218;28;20069;-88
2023/09/08 01:21:00;;;;;;;7.65;3.75;;;16.40;99.90;;;;;;5110024;28;20484;-87
2023/09/08 01:23:50;;;;;;;6.43;3.88;;;16.40;99.90;;;;;;5108804;28;20031;-87
2023/09/08 01:26:21;;;;;;;10.80;4.30;;;16.30;99.90;;;;;;5108537;28;20024;-87
2023/09/08 01:28:49;;;;;;;13.07;3.92;;;16.30;99.90;;;;;;5110229;28;20551;-88
2023/09/08 01:31:16;;;;;;;7.68;4.30;;;16.30;99.90;;;;;;5110264;28;20015;-88
2023/09/08 01:33:42;;;;;;;9.23;4.20;;;16.30;99.90;;;;;;5108569;28;20114;-88
2023/09/08 01:36:09;;;;;;;6.85;3.88;;;16.30;99.90;;;;;;5110077;28;20024;-88
2023/09/08 01:38:35;;;;;;;7.07;3.78;;;16.40;99.90;;;;;;5109043;28;20553;-86
2023/09/08 01:41:01;;;;;;;6.35;3.88;;;16.50;99.90;;;;;;5110097;28;20066;-88
2023/09/08 01:43:27;;;;;;;9.23;3.60;;;16.60;99.90;;;;;;5109084;28;20037;-85
2023/09/08 01:45:53;;;;;;;8.57;3.92;;;16.60;99.90;;;;;;5109835;28;20403;-88
2023/09/08 01:48:19;;;;;;;7.20;4.30;;;16.70;99.90;;;;;;5108720;28;20139;-86
2023/09/08 01:50:46;;;;;;;6.50;3.92;;;16.80;99.90;;;;;;5109875;28;20020;-87
2023/09/08 01:53:11;;;;;;;8.68;4.03;;;16.80;99.90;;;;;;5109040;28;20020;-87
2023/09/08 01:55:37;;;;;;;7.22;4.43;;;16.80;99.90;;;;;;5110533;28;20518;-87
2023/09/08 01:58:03;;;;;;;7.15;4.25;;;16.80;99.90;;;;;;5113786;28;20492;-88
2023/09/08 02:00:28;;;;;;;8.02;4.15;;;16.80;99.90;;;;;;5113686;28;20020;-85
2023/09/08 02:02:54;;;;;;;7.95;3.80;;;16.70;99.90;;;;;;5113128;28;20027;-87
2023/09/08 02:05:20;;;;;;;8.35;4.63;;;16.70;99.90;;;;;;5111863;28;20114;-86
2023/09/08 02:07:45;;;;;;;9.55;4.25;;;16.70;99.90;;;;;;5112168;28;20154;-86
2023/09/08 02:10:11;;;;;;;6.25;3.60;;;16.70;99.90;;;;;;5111960;28;20401;-87
2023/09/08 02:12:37;;;;;;;8.00;4.55;;;16.60;99.90;;;;;;5114321;28;20614;-87
2023/09/08 02:15:03;;;;;;;13.48;4.60;;;16.60;99.90;;;;;;5113984;28;20047;-88
2023/09/08 02:17:29;;;;;;;6.50;3.97;;;16.60;99.90;;;;;;5113435;28;20080;-87
2023/09/08 02:19:55;;;;;;;6.68;4.40;;;16.60;99.90;;;;;;5112192;28;20588;-87
2023/09/08 02:22:20;;;;;;;12.48;4.82;;;16.60;99.90;;;;;;5111612;28;20020;-87
2023/09/08 02:24:46;;;;;;;10.70;4.00;;;16.70;99.90;;;;;;5113177;28;20036;-86
2023/09/08 02:27:12;;;;;;;13.45;4.88;;;16.80;99.90;;;;;;5111899;28;20168;-83
2023/09/08 02:29:37;;;;;;;8.35;4.70;;;16.90;99.90;;;;;;5111493;28;20036;-87
2023/09/08 02:32:03;;;;;;;8.88;4.28;;;17.00;99.90;;;;;;5111894;28;20027;-85
2023/09/08 02:34:29;;;;;;;8.93;4.60;;;17.00;99.90;;;;;;5112266;27;20084;-86
2023/09/08 02:36:55;;;;;;;8.27;4.55;;;17.00;99.90;;;;;;5111493;28;20433;-87
2023/09/08 02:39:20;;;;;;;8.98;5.43;;;17.00;99.90;;;;;;5112591;28;20039;-88
2023/09/08 02:41:46;;;;;;;6.40;3.85;;;17.00;99.90;;;;;;5112604;28;20034;-86
2023/09/08 02:44:12;;;;;;;10.80;4.43;;;17.00;99.90;;;;;;5112532;28;20369;-85
2023/09/08 02:46:37;;;;;;;8.18;4.55;;;16.90;99.90;;;;;;5110875;28;20073;-86
2023/09/08 02:49:03;;;;;;;13.18;4.47;;;16.90;99.90;;;;;;5112201;28;20059;-86
2023/09/08 02:51:29;;;;;;;8.02;4.25;;;16.80;99.90;;;;;;5111206;28;20020;-87
2023/09/08 02:53:54;;;;;;;8.98;4.32;;;16.80;99.90;;;;;;5111015;28;20063;-88
2023/09/08 02:56:20;;;;;;;9.05;4.57;;;16.90;99.90;;;;;;5111799;28;20115;-86
2023/09/08 02:58:46;;;;;;;8.85;5.75;;;16.90;99.90;;;;;;5110944;28;20072;-86
2023/09/08 03:01:14;;;;;;;8.43;4.85;;;16.80;99.90;;;;;;5111948;28;20054;-86
2023/09/08 03:03:41;;;;;;;8.88;4.40;;;16.80;99.90;;;;;;5112131;28;20043;-86
2023/09/08 03:06:06;;;;;;;12.05;4.55;;;16.70;99.90;;;;;;5111835;28;20056;-88
2023/09/08 03:08:32;;;;;;;10.07;4.78;;;16.70;99.90;;;;;;5111894;28;20063;-87
2023/09/08 03:11:01;;;;;;;10.43;4.60;;;16.70;99.90;;;;;;5112072;28;20016;-87
2023/09/08 03:13:28;;;;;;;9.00;4.80;;;16.70;99.90;;;;;;5111078;28;20084;-86
2023/09/08 03:15:54;;;;;;;10.27;4.45;;;16.70;99.90;;;;;;5112002;28;20112;-86
2023/09/08 03:18:20;;;;;;;13.75;5.05;;;16.70;99.90;;;;;;5110322;28;20024;-86
2023/09/08 03:20:50;;;;;;;8.55;4.25;;;16.60;99.90;;;;;;5111614;28;20020;-85
2023/09/08 03:23:15;;;;;;;7.45;4.43;;;16.60;99.90;;;;;;5110402;28;20093;-86
2023/09/08 03:25:42;;;;;;;12.40;5.00;;;16.60;99.90;;;;;;5111414;28;20043;-87
2023/09/08 03:28:07;;;;;;;8.18;4.43;;;16.70;99.90;;;;;;5109395;28;20036;-87
2023/09/08 03:30:33;;;;;;;10.50;4.47;;;16.70;99.90;;;;;;5110596;28;20030;-86
2023/09/08 03:32:59;;;;;;;9.38;4.80;;;16.70;99.90;;;;;;5111322;28;20031;-85
2023/09/08 03:35:24;;;;;;;12.77;4.95;;;16.70;99.90;;;;;;5111291;28;20107;-86
2023/09/08 03:37:50;;;;;;;9.68;5.25;;;16.80;99.90;;;;;;5111263;28;20028;-87
2023/09/08 03:40:15;;;;;;;11.60;5.32;;;16.80;99.90;;;;;;5110365;28;20027;-86
2023/09/08 03:42:42;;;;;;;11.02;4.43;;;16.90;99.90;;;;;;5111395;28;20019;-87
2023/09/08 03:45:08;;;;;;;9.70;5.00;;;16.90;99.90;;;;;;5111494;28;20062;-86
2023/09/08 03:47:34;;;;;;;8.88;5.13;;;16.90;99.90;;;;;;5111366;28;20071;-86
2023/09/08 03:50:00;;;;;;;6.85;4.45;;;16.90;99.90;;;;;;5110965;28;20057;-87
2023/09/08 03:52:26;;;;;;;8.10;4.90;;;16.80;99.90;;;;;;5110804;28;20120;-88
2023/09/08 03:54:51;;;;;;;8.45;4.63;;;16.90;99.90;;;;;;5111184;28;20665;-86
2023/09/08 03:57:17;;;;;;;7.55;4.95;;;17.00;99.90;;;;;;5109815;28;20027;-86
2023/09/08 03:59:43;;;;;;;13.40;5.50;;;17.00;99.90;;;;;;5110266;28;20037;-87
2023/09/08 04:02:08;;;;;;;8.25;4.68;;;17.00;99.90;;;;;;5109447;28;20030;-86
2023/09/08 04:04:34;;;;;;;9.50;4.68;;;17.00;99.90;;;;;;5109402;28;20030;-86
2023/09/08 04:07:00;;;;;;;8.00;4.75;;;16.90;99.90;;;;;;5110829;28;20055;-85
2023/09/08 04:09:27;;;;;;;9.68;5.15;;;17.00;99.90;;;;;;5110756;28;20047;-87
2023/09/08 04:11:54;;;;;;;10.82;5.25;;;16.90;99.90;;;;;;5109589;28;20051;-85
2023/09/08 04:14:20;;;;;;;10.50;4.38;;;16.90;99.90;;;;;;5110730;28;20023;-86
2023/09/08 04:16:46;;;;;;;8.82;4.70;;;17.00;99.90;;;;;;5109487;28;20075;-86
2023/09/08 04:19:11;;;;;;;10.77;5.18;;;16.90;99.90;;;;;;5108939;28;20122;-86
2023/09/08 04:21:38;;;;;;;9.27;5.22;;;16.90;99.90;;;;;;5109341;28;20032;-86
2023/09/08 04:24:04;;;;;;;9.27;4.60;;;16.90;99.90;;;;;;5109411;28;20039;-87
2023/09/08 04:26:31;;;;;;;9.25;5.20;;;16.80;99.90;;;;;;5109309;28;20031;-86
2023/09/08 04:28:56;;;;;;;17.50;4.20;;;16.80;99.90;;;;;;5110304;28;20050;-85
2023/09/08 04:31:22;;;;;;;7.75;4.95;;;16.80;99.90;;;;;;5110063;28;20416;-87
2023/09/08 04:33:47;;;;;;;8.82;5.45;;;16.80;99.90;;;;;;5108849;28;20523;-86
2023/09/08 04:36:13;;;;;;;12.32;5.57;;;16.80;99.90;;;;;;5110177;28;20038;-85
2023/09/08 04:38:41;;;;;;;11.07;4.93;;;16.80;99.90;;;;;;5110148;28;20114;-87
2023/09/08 04:41:07;;;;;;;9.90;4.82;;;16.80;99.90;;;;;;5109060;28;20043;-85
2023/09/08 04:43:33;;;;;;;11.13;5.25;;;16.80;99.90;;;;;;5109253;28;20035;-86
2023/09/08 04:45:58;;;;;;;9.65;5.32;;;16.90;99.90;;;;;;5109082;28;20468;-87
2023/09/08 04:48:24;;;;;;;8.45;4.70;;;16.90;99.90;;;;;;5109882;28;20528;-88
2023/09/08 04:50:51;;;;;;;9.77;4.43;;;16.90;99.90;;;;;;5108700;28;20411;-86
2023/09/08 04:53:16;;;;;;;7.43;4.07;;;17.00;99.90;;;;;;5110123;28;20039;-86
2023/09/08 04:55:43;;;;;;;16.30;5.40;;;17.20;99.90;;;;;;5110198;28;20023;-85
2023/09/08 04:58:08;;;;;;;12.13;4.78;;;17.50;99.90;;;;;;5109962;28;20019;-84
2023/09/08 05:00:34;;;;;;;10.05;5.85;;;17.80;99.90;;;;;;5109780;28;20034;-86
2023/09/08 05:03:00;;;;;;;17.58;5.22;;;18.10;99.90;;;;;;5108659;28;20026;-84
2023/09/08 05:05:25;;;;;;;11.43;4.55;;;18.40;99.90;;;;;;5109676;28;20027;-85
2023/09/08 05:07:55;;;;;;;12.45;5.72;;;18.50;99.90;;;;;;5108882;28;20109;-84
2023/09/08 05:10:22;;;;;;;9.20;3.90;;;18.60;99.90;;;;;;5110035;28;20036;-84
2023/09/08 05:12:48;;;;;;;10.38;3.85;;;18.60;99.90;;;;;;5108158;28;20028;-85
2023/09/08 05:15:15;;;;;;;7.05;3.35;;;18.60;99.90;;;;;;5108389;28;20048;-84
2023/09/08 05:17:41;;;;;;;8.02;3.78;;;19.00;99.90;;;;;;5109252;28;20028;-83
2023/09/08 05:20:07;;;;;;;7.38;3.90;;;19.70;99.90;;;;;;5109600;28;20103;-83
2023/09/08 05:22:33;;;;;;;10.02;3.92;;;20.40;99.90;;;;;;5109602;28;20085;-83
2023/09/08 05:24:58;;;;;;;12.60;4.40;;;20.90;99.90;;;;;;5109200;28;20020;-83
2023/09/08 05:27:24;;;;;;;7.05;3.60;;;21.40;99.90;;;;;;5108895;28;20076;-84
2023/09/08 05:29:49;;;;;;;7.90;3.63;;;21.90;99.90;;;;;;5111226;28;20036;-83
2023/09/08 05:32:15;;;;;;;9.85;3.97;;;22.10;99.60;;;;;;5113811;28;20026;-83
2023/09/08 05:34:41;;;;;;;6.55;4.45;;;22.40;99.00;;;;;;5111990;28;20038;-84
2023/09/08 05:37:06;;;;;;;7.63;3.40;;;22.70;98.20;;;;;;5114029;28;20058;-83
2023/09/08 05:39:32;;;;;;;8.13;4.32;;;22.90;97.60;;;;;;5112592;28;20027;-83
2023/09/08 05:41:58;;;;;;;12.23;4.65;;;23.10;96.40;;;;;;5114225;28;20023;-83
2023/09/08 05:44:25;;;;;;;7.78;4.35;;;23.40;95.10;;;;;;5113407;28;20184;-83
2023/09/08 05:46:50;;;;;;;10.50;4.53;;;23.60;93.90;;;;;;5112376;28;20047;-82
2023/09/08 05:49:17;;;;;;;16.98;5.03;;;23.80;93.30;;;;;;5112632;28;20405;-82
2023/09/08 05:51:43;;;;;;;11.02;4.03;;;23.90;92.20;;;;;;5113553;28;20019;-83
2023/09/08 05:54:09;;;;;;;5.20;3.50;;;24.00;91.30;;;;;;5112115;28;20039;-82
2023/09/08 05:56:37;;;;;;;12.45;4.13;;;24.10;91.10;;;;;;5112301;28;20396;-83
2023/09/08 05:59:03;;;;;;;8.52;4.25;;;24.20;90.50;;;;;;5111874;28;20095;-82
2023/09/08 06:01:30;;;;;;;11.65;4.05;;;24.20;90.30;;;;;;5113171;28;20094;-83
2023/09/08 06:03:56;;;;;;;11.02;3.75;;;24.30;89.40;;;;;;5112875;28;20023;-82
2023/09/08 06:06:21;;;;;;;10.10;3.97;;;24.50;86.40;;;;;;5112570;28;20031;-82
2023/09/08 06:08:47;;;;;;;13.00;4.32;;;24.60;86.30;;;;;;5112360;28;20032;-81
2023/09/08 06:11:13;;;;;;;8.25;3.38;;;24.70;85.20;;;;;;5112813;28;20053;-83
2023/09/08 06:13:39;;;;;;;8.63;4.20;;;25.00;82.20;;;;;;5111818;28;20028;-82
2023/09/08 06:16:04;;;;;;;6.85;4.05;;;25.50;79.70;;;;;;5112457;28;20040;-82
2023/09/08 06:18:30;;;;;;;7.88;3.67;;;26.00;77.90;;;;;;5111103;28;20046;-83
2023/09/08 06:20:56;;;;;;;15.25;4.20;;;26.50;77.20;;;;;;5111083;28;20016;-81
2023/09/08 06:23:22;;;;;;;7.35;3.97;;;26.70;75.60;;;;;;5112368;28;20506;-83
2023/09/08 06:25:48;;;;;;;7.53;3.65;;;27.10;74.20;;;;;;5111604;28;20027;-83
2023/09/08 06:28:14;;;;;;;13.15;3.60;;;27.60;70.80;;;;;;5111358;28;20034;-82
2023/09/08 06:30:41;;;;;;;6.90;3.78;;;28.00;66.70;;;;;;5111123;28;20415;-82
2023/09/08 06:33:08;;;;;;;13.18;4.22;;;28.30;63.50;;;;;;5111697;28;20046;-83
2023/09/08 06:35:34;;;;;;;6.97;3.00;;;28.70;61.60;;;;;;5112986;28;20024;-84
2023/09/08 06:38:00;;;;;;;7.57;3.50;;;29.10;60.40;;;;;;5112987;28;20026;-82
2023/09/08 06:40:26;;;;;;;10.35;4.18;;;29.30;59.50;;;;;;5111624;28;20618;-82
2023/09/08 06:42:52;;;;;;;11.07;3.78;;;29.50;59.10;;;;;;5111121;28;20059;-82
2023/09/08 06:45:18;;;;;;;6.30;3.80;;;29.80;57.70;;;;;;5114581;28;20114;-83
2023/09/08 06:47:43;;;;;;;11.13;3.63;;;30.10;56.20;;;;;;5112805;28;20153;-82
2023/09/08 06:50:09;;;;;;;6.85;3.90;;;30.70;54.40;;;;;;5111949;28;20027;-82
2023/09/08 06:52:35;;;;;;;5.47;3.67;;;30.90;52.40;;;;;;5113304;28;20030;-82
2023/09/08 06:55:01;;;;;;;8.38;3.72;;;31.20;51.10;;;;;;5114621;28;20112;-83
2023/09/08 06:57:27;;;;;;;12.13;3.67;;;31.60;50.10;;;;;;5114461;28;20055;-82
2023/09/08 06:59:53;;;;;;;17.05;3.70;;;31.80;49.50;;;;;;5115837;27;20028;-83
2023/09/08 07:02:18;;;;;;;4.35;3.13;;;32.10;47.90;;;;;;5113789;28;20480;-82
2023/09/08 07:04:44;;;;;;;15.25;3.60;;;32.50;46.80;;;;;;5110397;28;20478;-81
2023/09/08 07:07:10;;;;;;;22.42;4.05;;;32.80;44.90;;;;;;5109816;28;20549;-82
2023/09/08 07:09:36;;;;;;;9.65;3.53;;;32.70;45.40;;;;;;5112473;28;20131;-82
2023/09/08 07:12:03;;;;;;;10.75;3.97;;;32.70;45.70;;;;;;5110477;28;20031;-82
2023/09/08 07:14:29;;;;;;;5.07;3.17;;;32.80;44.50;;;;;;5111855;28;20027;-82
2023/09/08 07:16:55;;;;;;;10.70;4.28;;;33.00;45.00;;;;;;5110057;28;20508;-82
2023/09/08 07:19:21;;;;;;;11.10;3.67;;;33.30;44.70;;;;;;5110693;28;20060;-82
2023/09/08 07:21:47;;;;;;;10.55;3.38;;;33.70;44.60;;;;;;5110252;28;20513;-82
2023/09/08 07:24:13;;;;;;;10.93;3.88;;;33.90;42.80;;;;;;5110989;28;20042;-82
2023/09/08 07:26:38;;;;;;;6.15;3.45;;;33.90;41.90;;;;;;5112611;28;20084;-82
2023/09/08 07:29:04;;;;;;;16.55;4.10;;;33.70;40.80;;;;;;5111064;28;20043;-82
2023/09/08 07:31:30;;;;;;;14.23;3.47;;;33.60;41.70;;;;;;5110914;28;20482;-83
2023/09/08 07:33:55;;;;;;;7.78;3.50;;;33.70;41.80;;;;;;5111832;28;20055;-82
2023/09/08 07:36:21;;;;;;;6.18;3.15;;;33.70;41.60;;;;;;5109813;28;20031;-81
2023/09/08 07:38:46;;;;;;;7.30;4.00;;;33.90;39.90;;;;;;5110022;28;20043;-82
2023/09/08 07:41:12;;;;;;;6.88;3.30;;;34.00;40.20;;;;;;5111618;28;20024;-83
2023/09/08 07:43:40;;;;;;;5.95;3.60;;;33.90;40.30;;;;;;5110868;28;20032;-81
2023/09/08 07:46:06;;;;;;;6.03;3.08;;;33.70;40.50;;;;;;5111187;28;20027;-83
2023/09/08 07:48:32;;;;;;;6.85;3.70;;;33.90;39.50;;;;;;5110350;28;20043;-82
2023/09/08 07:50:59;;;;;;;10.15;2.75;;;33.90;38.70;;;;;;5110353;28;20027;-83
2023/09/08 07:53:26;;;;;;;4.97;3.17;;;33.70;39.20;;;;;;5111440;27;20027;-82
2023/09/08 07:55:52;;;;;;;8.85;3.83;;;33.60;39.40;;;;;;5109284;28;20024;-83
2023/09/08 07:58:18;;;;;;;7.22;3.55;;;33.70;39.70;;;;;;5109537;28;20428;-83
2023/09/08 08:00:43;;;;;;;9.48;3.20;;;33.90;38.80;;;;;;5109246;28;20076;-82
2023/09/08 08:03:09;;;;;;;6.13;3.58;;;33.70;39.60;;;;;;5110569;28;20038;-80
2023/09/08 08:05:34;;;;;;;7.40;2.95;;;33.90;38.40;;;;;;5110046;28;20480;-83
2023/09/08 08:18:21;;;;;;;10.00;2.83;;;33.40;38.10;;;;;;5111569;28;20080;-82
2023/09/08 08:20:47;;;;;;;4.63;3.00;;;33.50;37.60;;;;;;5111383;28;20039;-81
2023/09/08 08:23:12;;;;;;;10.00;3.20;;;33.50;36.90;;;;;;5110988;28;20030;-82
2023/09/08 08:25:38;;;;;;;7.68;3.13;;;33.10;38.40;;;;;;5109495;28;20096;-84
2023/09/08 08:28:04;;;;;;;6.20;3.13;;;33.10;37.90;;;;;;5111257;28;20031;-81
2023/09/08 08:30:30;;;;;;;5.50;3.30;;;32.50;37.70;;;;;;5109272;28;20028;-84
2023/09/08 08:32:56;;;;;;;8.02;2.88;;;32.40;37.30;;;;;;5109197;28;20095;-82
2023/09/08 08:35:21;;;;;;;7.32;3.67;;;32.30;38.10;;;;;;5110576;28;20027;-82
2023/09/08 08:37:47;;;;;;;4.05;2.78;;;32.50;38.40;;;;;;5110581;28;20092;-82
2023/09/08 08:40:13;;;;;;;3.50;2.83;;;32.70;37.20;;;;;;5110335;28;20055;-82
2023/09/08 08:42:41;;;;;;;9.25;2.95;;;32.70;36.40;;;;;;5108735;28;20480;-82
2023/09/08 08:45:07;;;;;;;6.75;3.25;;;32.60;37.60;;;;;;5108274;28;20063;-82
2023/09/08 08:47:33;;;;;;;4.85;2.58;;;32.80;37.50;;;;;;5109789;28;20066;-81
2023/09/08 08:50:00;;;;;;;7.55;3.20;;;32.60;36.00;;;;;;5109780;28;20066;-82
2023/09/08 08:52:27;;;;;;;5.28;3.67;;;32.40;36.60;;;;;;5109016;28;20019;-83
2023/09/08 08:54:54;;;;;;;4.35;2.63;;;32.30;36.80;;;;;;5108586;28;20032;-82
2023/09/08 08:57:21;;;;;;;6.35;2.85;;;32.30;36.80;;;;;;5108376;28;20038;-82
2023/09/08 08:59:49;;;;;;;7.95;2.78;;;32.30;37.00;;;;;;5109469;28;20534;-81
2023/09/08 09:02:15;;;;;;;4.97;2.55;;;32.70;36.20;;;;;;5110100;28;20484;-83
2023/09/08 09:04:41;;;;;;;8.32;3.08;;;33.00;36.40;;;;;;5113225;28;20076;-82
2023/09/08 09:07:08;;;;;;;6.40;2.88;;;33.20;36.50;;;;;;5115689;28;20027;-82
2023/09/08 09:09:34;;;;;;;3.63;2.97;;;33.00;36.30;;;;;;5114233;28;20051;-82
2023/09/08 09:12:02;;;;;;;6.15;2.35;;;32.90;36.80;;;;;;5115978;28;20034;-84
2023/09/08 09:14:27;;;;;;;4.68;3.08;;;32.80;35.70;;;;;;5115102;28;20321;-82
2023/09/08 09:16:56;;;;;;;3.38;2.20;;;32.60;35.50;;;;;;5113810;28;20044;-82
2023/09/08 09:19:31;;;;;;;4.60;2.90;;;32.90;35.80;;;;;;5113164;28;20024;-82
2023/09/08 09:21:58;;;;;;;7.90;2.88;;;32.90;36.80;;;;;;5115187;28;20081;-83
2023/09/08 09:24:40;;;;;;;9.40;2.70;;;32.60;36.90;;;;;;5112323;28;20377;-83
2023/09/08 09:27:06;;;;;;;6.10;3.33;;;32.50;37.20;;;;;;5112571;28;20663;-83
2023/09/08 09:29:33;;;;;;;5.60;3.45;;;32.80;38.20;;;;;;5114652;28;20122;-83
2023/09/08 09:32:07;;;;;;;3.63;2.67;;;32.90;38.40;;;;;;5112679;28;20750;-82
2023/09/08 09:34:34;;;;;;;5.70;3.10;;;32.90;37.20;;;;;;5113786;28;20063;-83
2023/09/08 09:36:59;;;;;;;3.78;2.83;;;33.10;36.90;;;;;;5112560;28;20031;-82
2023/09/08 09:39:26;;;;;;;4.05;2.80;;;33.30;36.30;;;;;;5113533;28;20035;-84
2023/09/08 09:41:56;;;;;;;5.57;2.80;;;33.40;37.90;;;;;;5113175;28;20046;-83
2023/09/08 09:44:23;;;;;;;7.05;2.90;;;33.80;37.20;;;;;;5112416;28;20497;-83
2023/09/08 09:46:52;;;;;;;7.32;3.22;;;33.80;36.80;;;;;;5113864;28;20107;-84
2023/09/08 09:49:18;;;;;;;6.13;3.15;;;33.60;36.50;;;;;;5112939;28;20070;-82
2023/09/08 09:51:48;;;;;;;4.88;2.80;;;33.70;36.70;;;;;;5114301;28;20026;-83
2023/09/08 09:54:15;;;;;;;4.35;3.22;;;33.60;35.30;;;;;;5112655;28;20039;-84
2023/09/08 09:56:41;;;;;;;4.43;2.85;;;33.40;36.90;;;;;;5112304;28;20421;-83
2023/09/08 09:59:12;;;;;;;9.23;2.97;;;33.50;36.10;;;;;;5113347;28;20028;-84
2023/09/08 10:01:39;;;;;;;6.18;3.22;;;33.30;37.10;;;;;;5113359;28;20028;-83
2023/09/08 10:04:06;;;;;;;8.43;3.17;;;33.00;37.00;;;;;;5113846;28;20040;-83
2023/09/08 10:06:36;;;;;;;7.18;3.17;;;32.90;38.00;;;;;;5113774;28;20035;-84
2023/09/08 10:09:04;;;;;;;6.57;3.05;;;32.90;37.80;;;;;;5114997;28;20051;-84
2023/09/08 10:11:53;;;;;;;5.38;2.45;;;33.10;37.20;;;;;;5113480;28;20015;-83
2023/09/08 10:14:20;;;;;;;8.35;2.67;;;33.20;38.30;;;;;;5112510;28;20028;-81
2023/09/08 10:16:49;;;;;;;5.00;2.83;;;33.10;37.60;;;;;;5112039;28;20070;-83
2023/09/08 10:19:16;;;;;;;6.07;3.03;;;32.80;38.00;;;;;;5112599;28;20031;-83
2023/09/08 10:21:45;;;;;;;9.02;3.33;;;32.20;38.80;;;;;;5112832;28;20035;-83
2023/09/08 10:24:26;;;;;;;5.22;3.15;;;31.60;39.80;;;;;;5113062;28;20031;-83
2023/09/08 10:27:09;;;;;;;8.80;3.10;;;30.70;41.90;;;;;;5112672;28;20035;-82
2023/09/08 10:29:35;;;;;;;9.88;3.30;;;30.20;42.40;;;;;;5111957;28;20035;-84
2023/09/08 10:32:02;;;;;;;7.22;3.92;;;29.90;43.30;;;;;;5112370;28;20613;-83
2023/09/08 10:34:30;;;;;;;5.13;3.17;;;29.70;45.00;;;;;;5110328;28;20089;-82
2023/09/08 10:36:55;;;;;;;4.88;2.95;;;29.50;44.00;;;;;;5112172;28;20020;-82
2023/09/08 10:39:29;;;;;;;3.38;2.03;;;29.30;44.80;;;;;;5111747;28;20028;-83
2023/09/08 10:42:16;;;;;;;6.40;3.30;;;29.00;44.70;;;;;;5110560;28;20027;-83
2023/09/08 10:45:05;;;;;;;7.20;2.97;;;28.80;44.40;;;;;;5111711;28;20028;-83
2023/09/08 10:47:36;;;;;;;12.02;2.97;;;28.70;44.70;;;;;;5112258;28;20035;-82
2023/09/08 10:50:03;;;;;;;9.68;2.97;;;28.50;45.50;;;;;;5112052;28;20027;-83
2023/09/08 10:52:29;;;;;;;7.38;3.13;;;28.40;44.60;;;;;;5110812;28;20023;-83
2023/09/08 10:54:56;;;;;;;7.82;3.17;;;28.20;45.50;;;;;;5112266;28;20107;-82
2023/09/08 10:57:23;;;;;;;6.43;3.03;;;28.20;45.70;;;;;;5111708;28;20028;-83
2023/09/08 10:59:59;;;;;;;4.63;3.15;;;28.40;46.10;;;;;;5110302;28;20471;-83
2023/09/08 11:02:42;;;;;;;5.90;3.00;;;28.40;45.80;;;;;;5111626;28;20034;-83
2023/09/08 11:05:10;;;;;;;6.80;2.80;;;28.50;43.20;;;;;;5112068;28;20027;-83
2023/09/08 11:07:37;;;;;;;11.15;3.22;;;28.30;42.30;;;;;;5112576;28;20045;-82
2023/09/08 11:10:04;;;;;;;4.65;3.05;;;28.30;43.20;;;;;;5111375;28;20075;-82
2023/09/08 11:12:31;;;;;;;9.25;2.90;;;28.20;43.50;;;;;;5111486;27;20055;-83
2023/09/08 11:14:57;;;;;;;4.55;3.20;;;28.10;42.30;;;;;;5111788;27;20104;-83
2023/09/08 11:17:28;;;;;;;8.23;2.72;;;28.00;44.10;;;;;;5111966;28;20023;-83
2023/09/08 11:19:54;;;;;;;5.43;3.45;;;28.10;43.70;;;;;;5109802;28;20081;-83
2023/09/08 11:22:25;;;;;;;8.10;3.13;;;28.30;43.60;;;;;;5109883;28;20028;-82
2023/09/08 11:24:58;;;;;;;7.10;3.20;;;28.30;44.30;;;;;;5109863;28;20024;-82
2023/09/08 11:27:24;;;;;;;9.30;3.83;;;28.20;42.70;;;;;;5109512;28;20027;-82
2023/09/08 11:29:50;;;;;;;5.10;2.97;;;28.20;44.40;;;;;;5109705;28;20527;-83
2023/09/08 11:32:16;;;;;;;5.55;2.50;;;28.30;43.50;;;;;;5110987;28;20031;-83
2023/09/08 11:34:42;;;;;;;5.20;2.45;;;28.20;42.70;;;;;;5111084;28;20024;-82
2023/09/08 11:37:13;;;;;;;7.63;3.35;;;28.20;43.60;;;;;;5111167;28;20041;-83
2023/09/08 11:39:46;;;;;;;10.98;2.88;;;28.20;42.50;;;;;;5110945;28;20050;-83
2023/09/08 11:42:14;;;;;;;3.83;2.28;;;28.20;43.10;;;;;;5111146;28;20423;-82
2023/09/08 11:44:41;;;;;;;5.25;3.00;;;28.20;43.00;;;;;;5109497;28;20051;-83
2023/09/08 11:47:07;;;;;;;4.28;2.47;;;28.20;42.70;;;;;;5110694;28;20035;-83
2023/09/08 11:49:37;;;;;;;8.02;2.90;;;28.20;42.90;;;;;;5109589;28;20070;-82
2023/09/08 11:52:04;;;;;;;6.03;2.85;;;28.40;42.80;;;;;;5110461;28;20024;-82
2023/09/08 11:54:31;;;;;;;5.47;3.33;;;28.30;43.20;;;;;;5109361;28;20571;-82
2023/09/08 11:57:01;;;;;;;6.22;3.50;;;28.40;44.80;;;;;;5109502;28;20027;-83
2023/09/08 11:59:32;;;;;;;6.55;3.33;;;28.30;43.10;;;;;;5110779;28;20024;-82
2023/09/08 12:01:58;;;;;;;8.20;3.28;;;28.40;43.80;;;;;;5110563;28;20102;-83
2023/09/08 12:04:24;;;;;;;5.43;2.92;;;28.30;43.50;;;;;;5110880;28;20115;-83
2023/09/08 12:06:52;;;;;;;11.43;3.63;;;28.40;43.70;;;;;;5110192;28;20495;-82
2023/09/08 12:09:20;;;;;;;7.70;3.13;;;28.40;43.00;;;;;;5110211;28;20096;-84
2023/09/08 12:11:45;;;;;;;5.47;3.03;;;28.40;42.90;;;;;;5109336;28;20597;-83
2023/09/08 12:14:13;;;;;;;5.95;2.80;;;28.40;42.30;;;;;;5109183;28;20032;-83
2023/09/08 12:16:40;;;;;;;6.20;3.42;;;28.40;42.40;;;;;;5109086;28;20043;-83
2023/09/08 12:19:07;;;;;;;5.57;2.88;;;28.40;42.70;;;;;;5109332;28;20031;-84
2023/09/08 12:21:54;;;;;;;4.43;3.08;;;28.50;43.20;;;;;;5108951;28;20122;-83
2023/09/08 12:24:19;;;;;;;5.10;2.70;;;28.60;43.70;;;;;;5108698;28;20031;-83
2023/09/08 12:26:45;;;;;;;9.27;2.97;;;28.50;43.10;;;;;;5109187;28;20024;-83
2023/09/08 12:29:14;;;;;;;3.70;2.65;;;28.40;42.40;;;;;;5108524;28;20031;-83
2023/09/08 12:31:39;;;;;;;10.32;2.75;;;28.50;43.20;;;;;;5110359;28;20027;-83
2023/09/08 12:34:05;;;;;;;5.03;2.80;;;28.50;43.10;;;;;;5109913;28;20112;-83
2023/09/08 12:36:31;;;;;;;7.60;2.78;;;28.60;43.20;;;;;;5108961;28;20032;-82
2023/09/08 12:38:56;;;;;;;11.52;3.88;;;28.60;43.20;;;;;;5108232;28;20118;-82
2023/09/08 12:41:22;;;;;;;6.50;3.35;;;28.60;43.30;;;;;;5108893;28;20055;-84
2023/09/08 12:43:48;;;;;;;4.72;3.38;;;28.50;43.60;;;;;;5108556;28;20121;-83
2023/09/08 12:46:17;;;;;;;8.93;3.33;;;28.50;43.20;;;;;;5109624;28;20126;-82
2023/09/08 12:48:43;;;;;;;6.55;3.08;;;28.50;42.30;;;;;;5109605;28;20035;-82
2023/09/08 12:51:09;;;;;;;5.70;3.33;;;28.50;43.20;;;;;;5109642;28;20100;-82
2023/09/08 12:53:35;;;;;;;8.07;3.28;;;28.60;44.20;;;;;;5108869;28;20019;-84